sensor_id;sensor_type;location;lat;lon;timestamp;pressure;altitude;pressure_sealevel;temperature;humidity
55291;BME280;41155;39.768;2.712;2023-02-27T00:00:34;100271.69;;;9.00;55.33
55291;BME280;41155;39.768;2.712;2023-02-27T00:03:00;100248.44;;;8.94;54.87
55291;BME280;41155;39.768;2.712;2023-02-27T00:05:25;100260.78;;;8.90;55.06
55291;BME280;41155;39.768;2.712;2023-02-27T00:07:51;100276.28;;;9.04;54.79
55291;BME280;41155;39.768;2.712;2023-02-27T00:10:16;100280.63;;;8.83;55.81
55291;BME280;41155;39.768;2.712;2023-02-27T00:12:42;100280.47;;;8.73;55.82
55291;BME280;41155;39.768;2.712;2023-02-27T00:15:10;100286.25;;;8.82;55.53
55291;BME280;41155;39.768;2.712;2023-02-27T00:17:36;100285.44;;;8.59;54.71
55291;BME280;41155;39.768;2.712;2023-02-27T00:20:03;100288.25;;;8.70;56.17
55291;BME280;41155;39.768;2.712;2023-02-27T00:22:30;100286.81;;;8.62;56.57
55291;BME280;41155;39.768;2.712;2023-02-27T00:24:55;100269.41;;;8.48;57.49
55291;BME280;41155;39.768;2.712;2023-02-27T00:27:21;100277.75;;;8.68;56.24
55291;BME280;41155;39.768;2.712;2023-02-27T00:29:46;100246.31;;;8.52;55.29
55291;BME280;41155;39.768;2.712;2023-02-27T00:32:12;100282.44;;;8.78;55.42
55291;BME280;41155;39.768;2.712;2023-02-27T00:34:38;100277.56;;;8.75;56.43
55291;BME280;41155;39.768;2.712;2023-02-27T00:37:03;100272.38;;;8.68;55.42
55291;BME280;41155;39.768;2.712;2023-02-27T00:39:29;100277.44;;;8.87;54.84
55291;BME280;41155;39.768;2.712;2023-02-27T00:41:54;100256.69;;;8.87;55.44
55291;BME280;41155;39.768;2.712;2023-02-27T00:44:20;100254.13;;;8.75;56.33
55291;BME280;41155;39.768;2.712;2023-02-27T00:46:45;100229.34;;;8.34;56.64
55291;BME280;41155;39.768;2.712;2023-02-27T00:49:11;100235.88;;;8.38;56.81
55291;BME280;41155;39.768;2.712;2023-02-27T00:51:36;100232.72;;;8.25;56.39
55291;BME280;41155;39.768;2.712;2023-02-27T00:54:02;100230.97;;;8.52;57.32
55291;BME280;41155;39.768;2.712;2023-02-27T00:56:28;100230.16;;;8.52;56.11
55291;BME280;41155;39.768;2.712;2023-02-27T00:58:53;100228.97;;;8.43;55.94
55291;BME280;41155;39.768;2.712;2023-02-27T01:01:18;100212.16;;;8.35;55.79
55291;BME280;41155;39.768;2.712;2023-02-27T01:03:44;100208.69;;;8.18;57.11
55291;BME280;41155;39.768;2.712;2023-02-27T01:06:09;100223.72;;;8.36;56.17
55291;BME280;41155;39.768;2.712;2023-02-27T01:08:35;100230.09;;;8.47;56.82
55291;BME280;41155;39.768;2.712;2023-02-27T01:11:00;100220.78;;;8.54;55.85
55291;BME280;41155;39.768;2.712;2023-02-27T01:13:26;100212.13;;;8.52;54.38
55291;BME280;41155;39.768;2.712;2023-02-27T01:15:51;100221.72;;;8.65;54.42
55291;BME280;41155;39.768;2.712;2023-02-27T01:18:17;100184.84;;;8.44;54.23
55291;BME280;41155;39.768;2.712;2023-02-27T01:20:42;100218.81;;;8.50;55.38
55291;BME280;41155;39.768;2.712;2023-02-27T01:23:08;100232.28;;;8.50;55.44
55291;BME280;41155;39.768;2.712;2023-02-27T01:25:33;100238.84;;;8.59;53.65
55291;BME280;41155;39.768;2.712;2023-02-27T01:27:59;100244.00;;;8.60;55.72
55291;BME280;41155;39.768;2.712;2023-02-27T01:30:25;100225.97;;;8.61;55.82
55291;BME280;41155;39.768;2.712;2023-02-27T01:32:50;100237.38;;;8.68;54.64
55291;BME280;41155;39.768;2.712;2023-02-27T01:35:16;100226.22;;;8.59;54.46
55291;BME280;41155;39.768;2.712;2023-02-27T01:37:42;100219.81;;;8.44;53.54
55291;BME280;41155;39.768;2.712;2023-02-27T01:40:08;100228.59;;;8.56;54.18
55291;BME280;41155;39.768;2.712;2023-02-27T01:42:34;100253.53;;;8.68;53.79
55291;BME280;41155;39.768;2.712;2023-02-27T01:47:39;100224.16;;;8.67;52.16
55291;BME280;41155;39.768;2.712;2023-02-27T01:50:07;100251.22;;;8.77;53.34
55291;BME280;41155;39.768;2.712;2023-02-27T01:52:33;100254.22;;;8.80;53.15
55291;BME280;41155;39.768;2.712;2023-02-27T01:55:01;100235.38;;;8.80;52.28
55291;BME280;41155;39.768;2.712;2023-02-27T01:57:26;100230.72;;;8.98;51.27
55291;BME280;41155;39.768;2.712;2023-02-27T01:59:52;100225.53;;;8.91;52.25
55291;BME280;41155;39.768;2.712;2023-02-27T02:02:22;100211.56;;;8.94;52.83
55291;BME280;41155;39.768;2.712;2023-02-27T02:04:51;100215.63;;;8.97;50.91
55291;BME280;41155;39.768;2.712;2023-02-27T02:07:19;100217.91;;;8.83;51.04
55291;BME280;41155;39.768;2.712;2023-02-27T02:09:48;100216.25;;;8.82;51.04
55291;BME280;41155;39.768;2.712;2023-02-27T02:12:15;100164.84;;;8.56;49.80
55291;BME280;41155;39.768;2.712;2023-02-27T02:14:42;100220.81;;;8.81;50.50
55291;BME280;41155;39.768;2.712;2023-02-27T02:20:15;100216.22;;;8.77;50.90
55291;BME280;41155;39.768;2.712;2023-02-27T02:45:32;100217.47;;;8.69;50.76
55291;BME280;41155;39.768;2.712;2023-02-27T02:48:15;100205.63;;;8.70;49.69
55291;BME280;41155;39.768;2.712;2023-02-27T02:50:55;100206.75;;;8.52;50.35
55291;BME280;41155;39.768;2.712;2023-02-27T02:53:36;100203.97;;;8.47;49.99
55291;BME280;41155;39.768;2.712;2023-02-27T02:56:25;100215.78;;;8.63;50.46
55291;BME280;41155;39.768;2.712;2023-02-27T02:59:09;100217.38;;;8.64;49.56
55291;BME280;41155;39.768;2.712;2023-02-27T03:01:45;100186.91;;;8.58;49.16
55291;BME280;41155;39.768;2.712;2023-02-27T03:04:21;100209.69;;;8.73;50.14
55291;BME280;41155;39.768;2.712;2023-02-27T03:07:01;100192.50;;;8.74;50.28
55291;BME280;41155;39.768;2.712;2023-02-27T03:09:48;100203.13;;;8.25;51.23
55291;BME280;41155;39.768;2.712;2023-02-27T03:12:20;100183.47;;;8.24;52.13
55291;BME280;41155;39.768;2.712;2023-02-27T03:15:12;100210.50;;;8.51;52.14
55291;BME280;41155;39.768;2.712;2023-02-27T03:17:44;100195.31;;;8.40;53.75
55291;BME280;41155;39.768;2.712;2023-02-27T03:20:18;100172.22;;;8.05;52.11
55291;BME280;41155;39.768;2.712;2023-02-27T03:22:48;100186.47;;;8.06;52.04
55291;BME280;41155;39.768;2.712;2023-02-27T03:25:16;100185.34;;;8.02;50.98
55291;BME280;41155;39.768;2.712;2023-02-27T03:27:51;100207.78;;;8.12;52.30
55291;BME280;41155;39.768;2.712;2023-02-27T03:35:42;100196.50;;;7.77;55.27
55291;BME280;41155;39.768;2.712;2023-02-27T03:38:35;100208.97;;;7.83;53.98
55291;BME280;41155;39.768;2.712;2023-02-27T03:41:15;100190.50;;;7.53;54.93
55291;BME280;41155;39.768;2.712;2023-02-27T03:46:42;100180.28;;;7.55;55.77
55291;BME280;41155;39.768;2.712;2023-02-27T03:49:08;100194.53;;;7.72;56.47
55291;BME280;41155;39.768;2.712;2023-02-27T03:51:34;100145.16;;;7.56;55.71
55291;BME280;41155;39.768;2.712;2023-02-27T03:54:16;100201.00;;;7.71;56.30
55291;BME280;41155;39.768;2.712;2023-02-27T03:56:49;100217.34;;;7.86;56.95
55291;BME280;41155;39.768;2.712;2023-02-27T03:59:15;100208.28;;;7.92;57.82
55291;BME280;41155;39.768;2.712;2023-02-27T04:01:42;100220.28;;;8.02;56.71
55291;BME280;41155;39.768;2.712;2023-02-27T04:04:14;100229.66;;;8.16;57.05
55291;BME280;41155;39.768;2.712;2023-02-27T04:07:02;100193.41;;;8.02;55.87
55291;BME280;41155;39.768;2.712;2023-02-27T04:26:31;100278.59;;;8.01;57.60
55291;BME280;41155;39.768;2.712;2023-02-27T04:29:11;100288.47;;;8.12;57.90
55291;BME280;41155;39.768;2.712;2023-02-27T04:31:58;100288.63;;;8.23;58.48
55291;BME280;41155;39.768;2.712;2023-02-27T04:37:06;100296.03;;;7.82;59.62
55291;BME280;41155;39.768;2.712;2023-02-27T04:39:41;100279.84;;;7.93;59.52
55291;BME280;41155;39.768;2.712;2023-02-27T04:42:15;100302.56;;;8.20;59.65
55291;BME280;41155;39.768;2.712;2023-02-27T04:44:43;100316.75;;;8.15;60.69
55291;BME280;41155;39.768;2.712;2023-02-27T04:47:11;100307.78;;;8.09;60.82
55291;BME280;41155;39.768;2.712;2023-02-27T04:49:44;100316.34;;;8.06;60.56
55291;BME280;41155;39.768;2.712;2023-02-27T04:52:29;100351.47;;;8.17;59.83
55291;BME280;41155;39.768;2.712;2023-02-27T04:57:35;100356.69;;;8.23;61.98
55291;BME280;41155;39.768;2.712;2023-02-27T05:00:05;100366.94;;;8.26;62.73
55291;BME280;41155;39.768;2.712;2023-02-27T05:02:42;100338.84;;;8.17;63.33
55291;BME280;41155;39.768;2.712;2023-02-27T05:05:16;100366.06;;;8.37;63.17
55291;BME280;41155;39.768;2.712;2023-02-27T05:08:12;100375.69;;;8.33;63.24
55291;BME280;41155;39.768;2.712;2023-02-27T05:11:04;100384.00;;;8.32;63.26
55291;BME280;41155;39.768;2.712;2023-02-27T05:13:39;100385.78;;;8.26;63.93
55291;BME280;41155;39.768;2.712;2023-02-27T05:16:22;100393.75;;;8.21;64.75
55291;BME280;41155;39.768;2.712;2023-02-27T05:18:51;100386.34;;;8.11;65.09
55291;BME280;41155;39.768;2.712;2023-02-27T05:21:38;100395.47;;;8.10;65.63
55291;BME280;41155;39.768;2.712;2023-02-27T05:29:24;100416.63;;;8.07;65.85
55291;BME280;41155;39.768;2.712;2023-02-27T05:32:02;100420.91;;;8.20;65.18
55291;BME280;41155;39.768;2.712;2023-02-27T05:34:35;100421.78;;;8.08;65.74
55291;BME280;41155;39.768;2.712;2023-02-27T05:37:08;100420.16;;;8.07;66.25
55291;BME280;41155;39.768;2.712;2023-02-27T05:39:36;100419.75;;;7.70;67.03
55291;BME280;41155;39.768;2.712;2023-02-27T05:42:26;100422.50;;;7.75;65.99
55291;BME280;41155;39.768;2.712;2023-02-27T05:45:30;100429.72;;;7.86;66.70
55291;BME280;41155;39.768;2.712;2023-02-27T05:48:06;100432.81;;;7.95;66.48
55291;BME280;41155;39.768;2.712;2023-02-27T05:50:33;100437.81;;;8.03;66.63
55291;BME280;41155;39.768;2.712;2023-02-27T05:53:02;100428.47;;;7.77;66.86
55291;BME280;41155;39.768;2.712;2023-02-27T05:55:37;100419.59;;;7.77;67.22
55291;BME280;41155;39.768;2.712;2023-02-27T06:00:42;100404.69;;;7.57;67.94
55291;BME280;41155;39.768;2.712;2023-02-27T06:03:08;100421.13;;;7.73;67.39
55291;BME280;41155;39.768;2.712;2023-02-27T06:05:35;100430.13;;;7.66;68.33
55291;BME280;41155;39.768;2.712;2023-02-27T06:08:01;100426.28;;;7.62;68.30
55291;BME280;41155;39.768;2.712;2023-02-27T06:10:27;100427.22;;;7.68;68.50
55291;BME280;41155;39.768;2.712;2023-02-27T06:12:53;100406.91;;;7.60;68.09
55291;BME280;41155;39.768;2.712;2023-02-27T06:15:18;100404.47;;;7.59;67.81
55291;BME280;41155;39.768;2.712;2023-02-27T06:17:44;100429.13;;;7.56;68.00
55291;BME280;41155;39.768;2.712;2023-02-27T06:20:10;100431.56;;;7.57;67.82
55291;BME280;41155;39.768;2.712;2023-02-27T06:22:36;100431.22;;;7.54;68.64
55291;BME280;41155;39.768;2.712;2023-02-27T06:25:01;100437.75;;;7.58;68.94
55291;BME280;41155;39.768;2.712;2023-02-27T06:27:27;100431.13;;;7.48;68.71
55291;BME280;41155;39.768;2.712;2023-02-27T06:29:53;100438.34;;;7.60;68.12
55291;BME280;41155;39.768;2.712;2023-02-27T06:32:19;100442.13;;;7.47;69.18
55291;BME280;41155;39.768;2.712;2023-02-27T06:34:45;100445.75;;;7.41;69.61
55291;BME280;41155;39.768;2.712;2023-02-27T06:37:10;100408.41;;;7.16;69.21
55291;BME280;41155;39.768;2.712;2023-02-27T06:39:36;100420.88;;;7.34;68.88
55291;BME280;41155;39.768;2.712;2023-02-27T06:42:01;100447.81;;;7.51;70.02
55291;BME280;41155;39.768;2.712;2023-02-27T06:44:27;100445.91;;;7.63;69.87
55291;BME280;41155;39.768;2.712;2023-02-27T06:46:53;100447.75;;;7.74;68.92
55291;BME280;41155;39.768;2.712;2023-02-27T06:49:19;100456.19;;;7.66;69.62
55291;BME280;41155;39.768;2.712;2023-02-27T06:51:44;100442.00;;;7.42;70.09
55291;BME280;41155;39.768;2.712;2023-02-27T06:54:10;100447.75;;;7.22;70.44
55291;BME280;41155;39.768;2.712;2023-02-27T06:56:36;100457.81;;;7.27;70.10
55291;BME280;41155;39.768;2.712;2023-02-27T06:59:01;100460.38;;;7.10;69.92
55291;BME280;41155;39.768;2.712;2023-02-27T07:01:27;100446.72;;;6.99;70.53
55291;BME280;41155;39.768;2.712;2023-02-27T07:03:52;100462.94;;;7.16;70.52
55291;BME280;41155;39.768;2.712;2023-02-27T07:06:18;100462.00;;;7.11;70.95
55291;BME280;41155;39.768;2.712;2023-02-27T07:08:43;100456.63;;;7.11;70.84
55291;BME280;41155;39.768;2.712;2023-02-27T07:11:09;100445.19;;;7.15;69.80
55291;BME280;41155;39.768;2.712;2023-02-27T07:13:35;100461.66;;;7.19;69.70
55291;BME280;41155;39.768;2.712;2023-02-27T07:16:01;100460.97;;;7.23;69.63
55291;BME280;41155;39.768;2.712;2023-02-27T07:18:26;100438.63;;;7.23;69.15
55291;BME280;41155;39.768;2.712;2023-02-27T07:20:52;100437.97;;;7.04;69.42
55291;BME280;41155;39.768;2.712;2023-02-27T07:23:20;100469.59;;;7.14;69.69
55291;BME280;41155;39.768;2.712;2023-02-27T07:25:46;100462.91;;;7.28;69.57
55291;BME280;41155;39.768;2.712;2023-02-27T07:28:12;100409.38;;;6.86;69.92
55291;BME280;41155;39.768;2.712;2023-02-27T07:30:38;100437.38;;;7.14;69.66
55291;BME280;41155;39.768;2.712;2023-02-27T07:33:03;100471.09;;;7.33;70.06
55291;BME280;41155;39.768;2.712;2023-02-27T07:35:30;100474.00;;;7.43;69.52
55291;BME280;41155;39.768;2.712;2023-02-27T07:37:55;100471.88;;;7.57;69.11
55291;BME280;41155;39.768;2.712;2023-02-27T07:40:21;100446.44;;;7.48;68.79
55291;BME280;41155;39.768;2.712;2023-02-27T07:42:47;100448.41;;;7.53;69.31
55291;BME280;41155;39.768;2.712;2023-02-27T07:45:13;100477.47;;;7.67;69.23
55291;BME280;41155;39.768;2.712;2023-02-27T07:47:38;100454.13;;;7.56;68.59
55291;BME280;41155;39.768;2.712;2023-02-27T07:50:05;100466.34;;;7.76;67.11
55291;BME280;41155;39.768;2.712;2023-02-27T07:52:31;100459.13;;;7.64;68.46
55291;BME280;41155;39.768;2.712;2023-02-27T07:54:56;100465.75;;;7.74;68.19
55291;BME280;41155;39.768;2.712;2023-02-27T07:57:22;100450.25;;;7.64;68.30
55291;BME280;41155;39.768;2.712;2023-02-27T07:59:47;100475.44;;;7.75;68.05
55291;BME280;41155;39.768;2.712;2023-02-27T08:02:13;100472.72;;;7.86;67.81
55291;BME280;41155;39.768;2.712;2023-02-27T08:04:38;100471.50;;;7.65;68.18
55291;BME280;41155;39.768;2.712;2023-02-27T08:07:04;100436.75;;;7.47;67.94
55291;BME280;41155;39.768;2.712;2023-02-27T08:09:30;100486.56;;;7.78;68.30
55291;BME280;41155;39.768;2.712;2023-02-27T08:11:56;100489.38;;;7.60;68.25
55291;BME280;41155;39.768;2.712;2023-02-27T08:14:22;100491.97;;;7.55;67.14
55291;BME280;41155;39.768;2.712;2023-02-27T08:16:48;100474.47;;;7.40;67.16
55291;BME280;41155;39.768;2.712;2023-02-27T08:19:13;100494.66;;;7.43;67.94
55291;BME280;41155;39.768;2.712;2023-02-27T08:21:39;100508.34;;;7.41;68.64
55291;BME280;41155;39.768;2.712;2023-02-27T08:24:05;100472.50;;;7.36;67.87
55291;BME280;41155;39.768;2.712;2023-02-27T08:26:31;100507.78;;;7.28;68.12
55291;BME280;41155;39.768;2.712;2023-02-27T08:28:56;100511.84;;;7.42;68.70
55291;BME280;41155;39.768;2.712;2023-02-27T08:31:22;100501.91;;;7.42;69.09
55291;BME280;41155;39.768;2.712;2023-02-27T08:33:47;100468.75;;;7.25;69.93
55291;BME280;41155;39.768;2.712;2023-02-27T08:36:13;100508.81;;;7.27;70.46
55291;BME280;41155;39.768;2.712;2023-02-27T08:38:39;100496.09;;;7.22;70.95
55291;BME280;41155;39.768;2.712;2023-02-27T08:41:04;100483.00;;;7.14;70.19
55291;BME280;41155;39.768;2.712;2023-02-27T08:43:30;100510.91;;;7.36;69.23
55291;BME280;41155;39.768;2.712;2023-02-27T08:45:55;100527.94;;;7.54;69.33
55291;BME280;41155;39.768;2.712;2023-02-27T08:48:21;100531.81;;;7.46;69.13
55291;BME280;41155;39.768;2.712;2023-02-27T08:50:49;100529.56;;;7.55;68.16
55291;BME280;41155;39.768;2.712;2023-02-27T08:53:14;100536.16;;;7.47;68.09
55291;BME280;41155;39.768;2.712;2023-02-27T08:55:41;100533.69;;;7.45;68.15
55291;BME280;41155;39.768;2.712;2023-02-27T08:58:07;100518.38;;;7.22;69.10
55291;BME280;41155;39.768;2.712;2023-02-27T09:00:33;100521.88;;;7.11;69.14
55291;BME280;41155;39.768;2.712;2023-02-27T09:02:59;100531.00;;;7.22;69.98
55291;BME280;41155;39.768;2.712;2023-02-27T09:05:26;100543.28;;;7.18;69.90
55291;BME280;41155;39.768;2.712;2023-02-27T09:07:51;100543.63;;;7.10;70.68
55291;BME280;41155;39.768;2.712;2023-02-27T09:10:17;100535.69;;;7.15;70.13
55291;BME280;41155;39.768;2.712;2023-02-27T09:12:42;100561.34;;;6.99;70.80
55291;BME280;41155;39.768;2.712;2023-02-27T09:15:08;100570.31;;;6.93;70.98
55291;BME280;41155;39.768;2.712;2023-02-27T09:17:35;100538.44;;;6.96;71.28
55291;BME280;41155;39.768;2.712;2023-02-27T09:20:01;100556.31;;;7.02;71.01
55291;BME280;41155;39.768;2.712;2023-02-27T09:22:28;100549.00;;;7.21;70.34
55291;BME280;41155;39.768;2.712;2023-02-27T09:24:54;100499.94;;;6.91;69.84
55291;BME280;41155;39.768;2.712;2023-02-27T09:27:20;100546.78;;;7.18;70.65
55291;BME280;41155;39.768;2.712;2023-02-27T09:29:48;100557.25;;;7.32;70.58
55291;BME280;41155;39.768;2.712;2023-02-27T09:32:20;100561.59;;;7.33;69.94
55291;BME280;41155;39.768;2.712;2023-02-27T09:34:45;100541.41;;;7.30;70.24
55291;BME280;41155;39.768;2.712;2023-02-27T09:37:11;100553.06;;;7.24;70.04
55291;BME280;41155;39.768;2.712;2023-02-27T09:39:36;100528.31;;;7.10;70.57
55291;BME280;41155;39.768;2.712;2023-02-27T09:42:14;100565.69;;;7.35;70.60
55291;BME280;41155;39.768;2.712;2023-02-27T09:44:45;100554.94;;;7.23;70.33
55291;BME280;41155;39.768;2.712;2023-02-27T09:47:29;100558.91;;;7.09;69.52
55291;BME280;41155;39.768;2.712;2023-02-27T09:50:04;100549.41;;;6.83;71.25
55291;BME280;41155;39.768;2.712;2023-02-27T09:52:34;100543.22;;;6.41;72.35
55291;BME280;41155;39.768;2.712;2023-02-27T09:55:01;100550.00;;;6.43;72.80
55291;BME280;41155;39.768;2.712;2023-02-27T09:57:48;100561.81;;;6.54;73.04
55291;BME280;41155;39.768;2.712;2023-02-27T10:00:41;100564.06;;;6.69;72.54
55291;BME280;41155;39.768;2.712;2023-02-27T10:09:29;100521.63;;;6.05;74.47
55291;BME280;41155;39.768;2.712;2023-02-27T10:11:52;100561.72;;;6.61;73.83
55291;BME280;41155;39.768;2.712;2023-02-27T10:17:13;100575.44;;;6.52;73.42
55291;BME280;41155;39.768;2.712;2023-02-27T10:19:43;100542.56;;;6.27;74.42
55291;BME280;41155;39.768;2.712;2023-02-27T10:22:13;100557.94;;;6.20;74.18
55291;BME280;41155;39.768;2.712;2023-02-27T10:24:52;100563.72;;;6.35;74.69
55291;BME280;41155;39.768;2.712;2023-02-27T10:27:20;100557.09;;;6.38;75.94
55291;BME280;41155;39.768;2.712;2023-02-27T10:29:46;100545.78;;;6.47;75.19
55291;BME280;41155;39.768;2.712;2023-02-27T10:32:27;100566.56;;;6.94;74.35
55291;BME280;41155;39.768;2.712;2023-02-27T10:35:24;100567.75;;;6.98;74.30
55291;BME280;41155;39.768;2.712;2023-02-27T10:37:56;100559.56;;;6.93;73.15
55291;BME280;41155;39.768;2.712;2023-02-27T10:40:23;100576.19;;;7.13;73.41
55291;BME280;41155;39.768;2.712;2023-02-27T10:42:50;100571.88;;;7.24;73.20
55291;BME280;41155;39.768;2.712;2023-02-27T10:45:16;100549.31;;;7.13;72.68
55291;BME280;41155;39.768;2.712;2023-02-27T10:47:42;100575.84;;;7.21;73.06
55291;BME280;41155;39.768;2.712;2023-02-27T10:50:27;100578.19;;;7.18;73.72
55291;BME280;41155;39.768;2.712;2023-02-27T10:53:00;100559.25;;;7.13;73.64
55291;BME280;41155;39.768;2.712;2023-02-27T10:55:32;100566.72;;;7.11;73.34
55291;BME280;41155;39.768;2.712;2023-02-27T10:58:00;100573.00;;;7.05;74.31
55291;BME280;41155;39.768;2.712;2023-02-27T11:00:53;100566.97;;;7.33;73.27
55291;BME280;41155;39.768;2.712;2023-02-27T11:03:23;100570.13;;;7.41;72.43
55291;BME280;41155;39.768;2.712;2023-02-27T11:05:55;100571.41;;;7.27;71.86
55291;BME280;41155;39.768;2.712;2023-02-27T11:08:24;100555.91;;;7.29;72.57
55291;BME280;41155;39.768;2.712;2023-02-27T11:10:58;100556.91;;;7.40;72.29
55291;BME280;41155;39.768;2.712;2023-02-27T11:13:27;100548.06;;;7.28;72.28
55291;BME280;41155;39.768;2.712;2023-02-27T11:16:22;100573.16;;;7.45;71.62
55291;BME280;41155;39.768;2.712;2023-02-27T11:18:50;100564.16;;;7.39;72.10
55291;BME280;41155;39.768;2.712;2023-02-27T11:29:05;100564.63;;;7.24;71.81
55291;BME280;41155;39.768;2.712;2023-02-27T11:31:33;100566.16;;;7.32;71.51
55291;BME280;41155;39.768;2.712;2023-02-27T11:34:00;100541.25;;;7.01;72.22
55291;BME280;41155;39.768;2.712;2023-02-27T11:36:43;100549.31;;;7.13;72.09
55291;BME280;41155;39.768;2.712;2023-02-27T11:41:48;100578.81;;;6.90;72.00
55291;BME280;41155;39.768;2.712;2023-02-27T11:44:16;100560.03;;;6.90;72.83
55291;BME280;41155;39.768;2.712;2023-02-27T11:46:42;100544.25;;;6.70;72.94
55291;BME280;41155;39.768;2.712;2023-02-27T11:49:31;100561.88;;;6.77;73.95
55291;BME280;41155;39.768;2.712;2023-02-27T11:52:11;100584.75;;;6.80;73.78
55291;BME280;41155;39.768;2.712;2023-02-27T11:54:44;100541.97;;;6.55;73.82
55291;BME280;41155;39.768;2.712;2023-02-27T11:57:24;100569.81;;;6.42;74.18
55291;BME280;41155;39.768;2.712;2023-02-27T11:59:59;100563.78;;;6.59;74.99
55291;BME280;41155;39.768;2.712;2023-02-27T12:06:12;100559.34;;;6.52;74.53
55291;BME280;41155;39.768;2.712;2023-02-27T12:10:51;100564.59;;;6.59;76.13
55291;BME280;41155;39.768;2.712;2023-02-27T12:13:22;100554.34;;;6.56;75.47
55291;BME280;41155;39.768;2.712;2023-02-27T12:15:57;100557.16;;;6.61;75.87
55291;BME280;41155;39.768;2.712;2023-02-27T12:21:02;100555.81;;;6.40;75.61
55291;BME280;41155;39.768;2.712;2023-02-27T12:23:38;100554.09;;;6.27;75.07
55291;BME280;41155;39.768;2.712;2023-02-27T12:26:20;100568.66;;;6.20;75.00
55291;BME280;41155;39.768;2.712;2023-02-27T12:31:45;100502.00;;;6.23;76.06
55291;BME280;41155;39.768;2.712;2023-02-27T12:37:03;100531.97;;;6.62;75.42
55291;BME280;41155;39.768;2.712;2023-02-27T12:39:30;100543.16;;;6.59;74.90
55291;BME280;41155;39.768;2.712;2023-02-27T12:50:11;100532.97;;;6.49;74.91
55291;BME280;41155;39.768;2.712;2023-02-27T12:55:28;100550.44;;;6.40;74.83
55291;BME280;41155;39.768;2.712;2023-02-27T12:58:20;100539.25;;;6.43;74.72
55291;BME280;41155;39.768;2.712;2023-02-27T13:00:58;100561.97;;;6.71;73.71
55291;BME280;41155;39.768;2.712;2023-02-27T13:14:21;100545.69;;;6.42;74.73
55291;BME280;41155;39.768;2.712;2023-02-27T13:17:12;100536.53;;;6.31;75.33
55291;BME280;41155;39.768;2.712;2023-02-27T13:19:49;100558.59;;;6.33;75.91
55291;BME280;41155;39.768;2.712;2023-02-27T13:25:14;100533.38;;;6.04;76.54
55291;BME280;41155;39.768;2.712;2023-02-27T13:27:54;100501.34;;;5.91;76.41
55291;BME280;41155;39.768;2.712;2023-02-27T13:30:33;100543.94;;;6.18;76.14
55291;BME280;41155;39.768;2.712;2023-02-27T13:36:16;100550.59;;;5.97;76.29
55291;BME280;41155;39.768;2.712;2023-02-27T13:38:48;100523.09;;;6.01;76.28
55291;BME280;41155;39.768;2.712;2023-02-27T13:43:46;100524.38;;;5.99;77.28
55291;BME280;41155;39.768;2.712;2023-02-27T13:46:28;100536.59;;;5.95;77.85
55291;BME280;41155;39.768;2.712;2023-02-27T13:51:52;100528.00;;;5.86;78.36
55291;BME280;41155;39.768;2.712;2023-02-27T13:54:20;100520.56;;;5.88;78.06
55291;BME280;41155;39.768;2.712;2023-02-27T13:59:30;100539.63;;;5.80;78.16
55291;BME280;41155;39.768;2.712;2023-02-27T14:02:20;100533.53;;;5.91;78.14
55291;BME280;41155;39.768;2.712;2023-02-27T14:04:52;100530.19;;;5.96;78.28
55291;BME280;41155;39.768;2.712;2023-02-27T14:07:22;100490.00;;;5.59;77.64
55291;BME280;41155;39.768;2.712;2023-02-27T14:09:59;100525.63;;;5.59;78.66
55291;BME280;41155;39.768;2.712;2023-02-27T14:12:31;100538.13;;;5.65;77.84
55291;BME280;41155;39.768;2.712;2023-02-27T14:14:59;100525.84;;;5.58;78.65
55291;BME280;41155;39.768;2.712;2023-02-27T14:22:36;100530.03;;;5.54;78.48
55291;BME280;41155;39.768;2.712;2023-02-27T14:25:19;100548.47;;;5.62;78.42
55291;BME280;41155;39.768;2.712;2023-02-27T14:27:51;100556.56;;;5.55;79.02
55291;BME280;41155;39.768;2.712;2023-02-27T14:30:30;100575.47;;;5.60;78.59
55291;BME280;41155;39.768;2.712;2023-02-27T14:33:00;100570.47;;;5.46;78.66
55291;BME280;41155;39.768;2.712;2023-02-27T14:35:28;100571.00;;;5.36;78.73
55291;BME280;41155;39.768;2.712;2023-02-27T14:37:54;100588.63;;;5.43;78.98
55291;BME280;41155;39.768;2.712;2023-02-27T14:40:25;100586.16;;;5.42;78.94
55291;BME280;41155;39.768;2.712;2023-02-27T14:45:39;100580.53;;;5.25;78.10
55291;BME280;41155;39.768;2.712;2023-02-27T14:48:08;100580.44;;;5.13;78.80
55291;BME280;41155;39.768;2.712;2023-02-27T14:50:35;100567.78;;;5.27;79.46
55291;BME280;41155;39.768;2.712;2023-02-27T14:53:04;100588.63;;;5.43;80.17
55291;BME280;41155;39.768;2.712;2023-02-27T14:55:34;100591.97;;;5.39;79.32
55291;BME280;41155;39.768;2.712;2023-02-27T15:00:45;100570.47;;;5.20;78.52
55291;BME280;41155;39.768;2.712;2023-02-27T15:03:31;100587.50;;;5.33;78.85
55291;BME280;41155;39.768;2.712;2023-02-27T15:06:01;100555.28;;;5.21;77.71
55291;BME280;41155;39.768;2.712;2023-02-27T15:08:31;100609.72;;;5.58;78.33
55291;BME280;41155;39.768;2.712;2023-02-27T15:10:58;100606.16;;;5.39;77.62
55291;BME280;41155;39.768;2.712;2023-02-27T15:13:29;100610.44;;;5.47;78.49
55291;BME280;41155;39.768;2.712;2023-02-27T15:18:51;100604.81;;;5.30;77.91
55291;BME280;41155;39.768;2.712;2023-02-27T15:21:19;100614.09;;;5.28;78.43
55291;BME280;41155;39.768;2.712;2023-02-27T15:24:05;100610.22;;;5.24;79.01
55291;BME280;41155;39.768;2.712;2023-02-27T15:26:36;100573.81;;;4.91;78.38
55291;BME280;41155;39.768;2.712;2023-02-27T15:29:07;100608.78;;;4.96;79.45
55291;BME280;41155;39.768;2.712;2023-02-27T15:31:33;100607.03;;;5.08;78.61
55291;BME280;41155;39.768;2.712;2023-02-27T15:34:00;100597.56;;;5.12;77.49
55291;BME280;41155;39.768;2.712;2023-02-27T15:36:32;100589.59;;;4.99;77.83
55291;BME280;41155;39.768;2.712;2023-02-27T15:39:04;100595.56;;;5.01;78.34
55291;BME280;41155;39.768;2.712;2023-02-27T15:41:30;100564.16;;;4.58;78.64
55291;BME280;41155;39.768;2.712;2023-02-27T15:43:56;100567.47;;;4.60;78.92
55291;BME280;41155;39.768;2.712;2023-02-27T15:46:22;100544.88;;;4.49;78.96